sensor_id;sensor_type;location;lat;lon;timestamp;pressure;altitude;pressure_sealevel;temperature
71205;BMP180;58935;54.498;18.544;2023-04-06T00:01:18;101359.20;;;0.20
71205;BMP180;58935;54.498;18.544;2023-04-06T00:03:44;101355.60;;;0.20
71205;BMP180;58935;54.498;18.544;2023-04-06T00:06:09;101361.00;;;0.20
71205;BMP180;58935;54.498;18.544;2023-04-06T00:08:35;101358.20;;;0.22
71205;BMP180;58935;54.498;18.544;2023-04-06T00:11:00;101354.40;;;0.22
71205;BMP180;58935;54.498;18.544;2023-04-06T00:13:26;101355.80;;;0.20
71205;BMP180;58935;54.498;18.544;2023-04-06T00:15:51;101355.40;;;0.30
71205;BMP180;58935;54.498;18.544;2023-04-06T00:18:16;101346.00;;;0.30
71205;BMP180;58935;54.498;18.544;2023-04-06T00:20:42;101347.60;;;0.30
71205;BMP180;58935;54.498;18.544;2023-04-06T00:23:07;101345.40;;;0.30
71205;BMP180;58935;54.498;18.544;2023-04-06T00:25:33;101345.60;;;0.30
71205;BMP180;58935;54.498;18.544;2023-04-06T00:27:58;101345.40;;;0.30
71205;BMP180;58935;54.498;18.544;2023-04-06T00:30:24;101348.20;;;0.30
71205;BMP180;58935;54.498;18.544;2023-04-06T00:32:49;101341.60;;;0.30
71205;BMP180;58935;54.498;18.544;2023-04-06T00:35:15;101340.20;;;0.30
71205;BMP180;58935;54.498;18.544;2023-04-06T00:37:41;101344.40;;;0.30
71205;BMP180;58935;54.498;18.544;2023-04-06T00:40:06;101345.20;;;0.30
71205;BMP180;58935;54.498;18.544;2023-04-06T00:42:32;101342.80;;;0.22
71205;BMP180;58935;54.498;18.544;2023-04-06T00:44:59;101343.20;;;0.20
71205;BMP180;58935;54.498;18.544;2023-04-06T00:47:25;101345.20;;;0.20
71205;BMP180;58935;54.498;18.544;2023-04-06T00:49:52;101337.20;;;0.20
71205;BMP180;58935;54.498;18.544;2023-04-06T00:52:18;101330.80;;;0.18
71205;BMP180;58935;54.498;18.544;2023-04-06T00:54:44;101327.80;;;0.10
71205;BMP180;58935;54.498;18.544;2023-04-06T00:57:11;101332.00;;;0.10
71205;BMP180;58935;54.498;18.544;2023-04-06T00:59:37;101332.80;;;0.10
71205;BMP180;58935;54.498;18.544;2023-04-06T01:02:03;101330.80;;;0.10
71205;BMP180;58935;54.498;18.544;2023-04-06T01:04:29;101331.00;;;0.10
71205;BMP180;58935;54.498;18.544;2023-04-06T01:06:54;101333.60;;;0.10
71205;BMP180;58935;54.498;18.544;2023-04-06T01:09:20;101328.40;;;0.06
71205;BMP180;58935;54.498;18.544;2023-04-06T01:11:48;101331.40;;;0.02
71205;BMP180;58935;54.498;18.544;2023-04-06T01:14:14;101328.20;;;0.00
71205;BMP180;58935;54.498;18.544;2023-04-06T01:16:41;101328.80;;;0.06
71205;BMP180;58935;54.498;18.544;2023-04-06T01:19:09;101327.00;;;0.10
71205;BMP180;58935;54.498;18.544;2023-04-06T01:21:36;101327.60;;;0.18
71205;BMP180;58935;54.498;18.544;2023-04-06T01:24:02;101329.80;;;0.20
71205;BMP180;58935;54.498;18.544;2023-04-06T01:26:27;101330.20;;;0.20
71205;BMP180;58935;54.498;18.544;2023-04-06T01:29:12;101325.80;;;0.20
71205;BMP180;58935;54.498;18.544;2023-04-06T01:31:38;101326.60;;;0.20
71205;BMP180;58935;54.498;18.544;2023-04-06T01:34:04;101329.00;;;0.28
71205;BMP180;58935;54.498;18.544;2023-04-06T01:36:30;101325.20;;;0.30
71205;BMP180;58935;54.498;18.544;2023-04-06T01:38:56;101326.80;;;0.28
71205;BMP180;58935;54.498;18.544;2023-04-06T01:41:21;101323.00;;;0.22
71205;BMP180;58935;54.498;18.544;2023-04-06T01:43:47;101317.40;;;0.20
71205;BMP180;58935;54.498;18.544;2023-04-06T01:46:13;101323.40;;;0.20
71205;BMP180;58935;54.498;18.544;2023-04-06T01:48:38;101322.60;;;0.20
71205;BMP180;58935;54.498;18.544;2023-04-06T01:51:04;101320.40;;;0.20
71205;BMP180;58935;54.498;18.544;2023-04-06T01:53:29;101319.80;;;0.20
71205;BMP180;58935;54.498;18.544;2023-04-06T01:55:55;101320.80;;;0.20
71205;BMP180;58935;54.498;18.544;2023-04-06T01:58:20;101322.80;;;0.20
71205;BMP180;58935;54.498;18.544;2023-04-06T02:00:45;101319.60;;;0.14
71205;BMP180;58935;54.498;18.544;2023-04-06T02:03:11;101316.20;;;0.10
71205;BMP180;58935;54.498;18.544;2023-04-06T02:05:36;101314.20;;;0.10
71205;BMP180;58935;54.498;18.544;2023-04-06T02:08:04;101314.00;;;0.10
71205;BMP180;58935;54.498;18.544;2023-04-06T02:10:31;101310.00;;;0.00
71205;BMP180;58935;54.498;18.544;2023-04-06T02:12:56;101320.40;;;0.00
71205;BMP180;58935;54.498;18.544;2023-04-06T02:15:22;101315.00;;;0.00
71205;BMP180;58935;54.498;18.544;2023-04-06T02:17:47;101315.60;;;-0.10
71205;BMP180;58935;54.498;18.544;2023-04-06T02:20:13;101318.80;;;-0.10
71205;BMP180;58935;54.498;18.544;2023-04-06T02:22:38;101320.40;;;-0.20
71205;BMP180;58935;54.498;18.544;2023-04-06T02:25:04;101317.80;;;-0.20
71205;BMP180;58935;54.498;18.544;2023-04-06T02:27:32;101317.60;;;-0.20
71205;BMP180;58935;54.498;18.544;2023-04-06T02:29:57;101318.40;;;-0.20
71205;BMP180;58935;54.498;18.544;2023-04-06T02:32:23;101320.60;;;-0.20
71205;BMP180;58935;54.498;18.544;2023-04-06T02:34:49;101322.60;;;-0.20
71205;BMP180;58935;54.498;18.544;2023-04-06T02:37:14;101322.20;;;-0.30
71205;BMP180;58935;54.498;18.544;2023-04-06T02:39:40;101323.60;;;-0.30
71205;BMP180;58935;54.498;18.544;2023-04-06T02:42:06;101320.40;;;-0.30
71205;BMP180;58935;54.498;18.544;2023-04-06T02:44:31;101326.00;;;-0.30
71205;BMP180;58935;54.498;18.544;2023-04-06T02:46:57;101325.80;;;-0.30
71205;BMP180;58935;54.498;18.544;2023-04-06T02:49:22;101325.60;;;-0.20
71205;BMP180;58935;54.498;18.544;2023-04-06T02:51:47;101329.20;;;-0.20
71205;BMP180;58935;54.498;18.544;2023-04-06T02:54:15;101331.00;;;-0.10
71205;BMP180;58935;54.498;18.544;2023-04-06T02:56:40;101329.20;;;-0.10
71205;BMP180;58935;54.498;18.544;2023-04-06T02:59:06;101329.20;;;-0.10
71205;BMP180;58935;54.498;18.544;2023-04-06T03:01:31;101330.60;;;-0.10
71205;BMP180;58935;54.498;18.544;2023-04-06T03:03:57;101329.60;;;-0.06
71205;BMP180;58935;54.498;18.544;2023-04-06T03:06:22;101326.00;;;-0.10
71205;BMP180;58935;54.498;18.544;2023-04-06T03:08:47;101330.80;;;-0.10
71205;BMP180;58935;54.498;18.544;2023-04-06T03:11:13;101337.20;;;-0.10
71205;BMP180;58935;54.498;18.544;2023-04-06T03:13:38;101338.40;;;-0.10
71205;BMP180;58935;54.498;18.544;2023-04-06T03:16:05;101335.60;;;-0.10
71205;BMP180;58935;54.498;18.544;2023-04-06T03:18:30;101334.40;;;-0.20
71205;BMP180;58935;54.498;18.544;2023-04-06T03:20:56;101332.80;;;-0.20
71205;BMP180;58935;54.498;18.544;2023-04-06T03:23:21;101337.60;;;-0.30
71205;BMP180;58935;54.498;18.544;2023-04-06T03:25:47;101333.20;;;-0.30
71205;BMP180;58935;54.498;18.544;2023-04-06T03:28:12;101335.20;;;-0.40
71205;BMP180;58935;54.498;18.544;2023-04-06T03:30:37;101338.00;;;-0.40
71205;BMP180;58935;54.498;18.544;2023-04-06T03:33:03;101334.80;;;-0.36
71205;BMP180;58935;54.498;18.544;2023-04-06T03:35:29;101337.60;;;-0.30
71205;BMP180;58935;54.498;18.544;2023-04-06T03:37:55;101342.40;;;-0.30
71205;BMP180;58935;54.498;18.544;2023-04-06T03:40:20;101341.40;;;-0.30
71205;BMP180;58935;54.498;18.544;2023-04-06T03:42:46;101339.60;;;-0.32
71205;BMP180;58935;54.498;18.544;2023-04-06T03:45:14;101341.00;;;-0.30
71205;BMP180;58935;54.498;18.544;2023-04-06T03:47:39;101347.20;;;-0.30
71205;BMP180;58935;54.498;18.544;2023-04-06T03:50:05;101346.00;;;-0.32
71205;BMP180;58935;54.498;18.544;2023-04-06T03:52:31;101350.60;;;-0.32
71205;BMP180;58935;54.498;18.544;2023-04-06T03:54:56;101355.00;;;-0.34
71205;BMP180;58935;54.498;18.544;2023-04-06T03:57:22;101356.00;;;-0.32
71205;BMP180;58935;54.498;18.544;2023-04-06T03:59:47;101366.20;;;-0.32
71205;BMP180;58935;54.498;18.544;2023-04-06T04:02:12;101370.00;;;-0.30
71205;BMP180;58935;54.498;18.544;2023-04-06T04:04:38;101369.40;;;-0.32
71205;BMP180;58935;54.498;18.544;2023-04-06T04:07:03;101367.80;;;-0.34
71205;BMP180;58935;54.498;18.544;2023-04-06T04:09:28;101372.40;;;-0.40
71205;BMP180;58935;54.498;18.544;2023-04-06T04:11:54;101375.40;;;-0.40
71205;BMP180;58935;54.498;18.544;2023-04-06T04:14:19;101375.80;;;-0.40
71205;BMP180;58935;54.498;18.544;2023-04-06T04:16:47;101376.80;;;-0.40
71205;BMP180;58935;54.498;18.544;2023-04-06T04:19:12;101376.40;;;-0.40
71205;BMP180;58935;54.498;18.544;2023-04-06T04:21:43;101370.40;;;-0.34
71205;BMP180;58935;54.498;18.544;2023-04-06T04:24:10;101373.00;;;-0.40
71205;BMP180;58935;54.498;18.544;2023-04-06T04:26:35;101374.40;;;-0.40
71205;BMP180;58935;54.498;18.544;2023-04-06T04:29:01;101373.20;;;-0.40
71205;BMP180;58935;54.498;18.544;2023-04-06T04:31:29;101366.60;;;-0.34
71205;BMP180;58935;54.498;18.544;2023-04-06T04:33:55;101372.40;;;-0.30
71205;BMP180;58935;54.498;18.544;2023-04-06T04:36:21;101373.00;;;-0.30
71205;BMP180;58935;54.498;18.544;2023-04-06T04:38:46;101367.60;;;-0.28
71205;BMP180;58935;54.498;18.544;2023-04-06T04:41:12;101371.40;;;-0.20
71205;BMP180;58935;54.498;18.544;2023-04-06T04:43:37;101371.80;;;-0.20
71205;BMP180;58935;54.498;18.544;2023-04-06T04:46:04;101372.40;;;-0.20
71205;BMP180;58935;54.498;18.544;2023-04-06T04:48:30;101369.20;;;-0.10
71205;BMP180;58935;54.498;18.544;2023-04-06T04:50:55;101368.80;;;-0.10
71205;BMP180;58935;54.498;18.544;2023-04-06T04:53:21;101366.00;;;0.00
71205;BMP180;58935;54.498;18.544;2023-04-06T04:55:46;101363.80;;;0.10
71205;BMP180;58935;54.498;18.544;2023-04-06T04:58:12;101364.60;;;0.14
71205;BMP180;58935;54.498;18.544;2023-04-06T05:00:42;101372.20;;;0.20
71205;BMP180;58935;54.498;18.544;2023-04-06T05:03:08;101369.40;;;0.30
71205;BMP180;58935;54.498;18.544;2023-04-06T05:05:33;101372.80;;;0.40
71205;BMP180;58935;54.498;18.544;2023-04-06T05:07:59;101366.60;;;0.48
71205;BMP180;58935;54.498;18.544;2023-04-06T05:10:24;101373.00;;;0.50
71205;BMP180;58935;54.498;18.544;2023-04-06T05:12:50;101367.60;;;0.60
71205;BMP180;58935;54.498;18.544;2023-04-06T05:15:15;101373.00;;;0.70
71205;BMP180;58935;54.498;18.544;2023-04-06T05:17:41;101380.80;;;0.78
71205;BMP180;58935;54.498;18.544;2023-04-06T05:20:07;101380.20;;;0.80
71205;BMP180;58935;54.498;18.544;2023-04-06T05:22:32;101375.60;;;0.80
71205;BMP180;58935;54.498;18.544;2023-04-06T05:24:57;101384.40;;;0.80
71205;BMP180;58935;54.498;18.544;2023-04-06T05:27:23;101382.60;;;0.90
71205;BMP180;58935;54.498;18.544;2023-04-06T05:29:48;101384.60;;;0.96
71205;BMP180;58935;54.498;18.544;2023-04-06T05:32:14;101382.40;;;1.04
71205;BMP180;58935;54.498;18.544;2023-04-06T05:34:40;101384.00;;;1.14
71205;BMP180;58935;54.498;18.544;2023-04-06T05:37:05;101382.00;;;1.20
71205;BMP180;58935;54.498;18.544;2023-04-06T05:39:31;101379.80;;;1.30
71205;BMP180;58935;54.498;18.544;2023-04-06T05:41:56;101378.20;;;1.40
71205;BMP180;58935;54.498;18.544;2023-04-06T05:44:22;101380.80;;;1.42
71205;BMP180;58935;54.498;18.544;2023-04-06T05:46:47;101378.40;;;1.50
71205;BMP180;58935;54.498;18.544;2023-04-06T05:49:14;101379.20;;;1.60
71205;BMP180;58935;54.498;18.544;2023-04-06T05:51:40;101379.00;;;1.60
71205;BMP180;58935;54.498;18.544;2023-04-06T05:54:05;101383.60;;;1.70
71205;BMP180;58935;54.498;18.544;2023-04-06T05:56:31;101378.40;;;1.74
71205;BMP180;58935;54.498;18.544;2023-04-06T05:58:57;101383.40;;;1.80
71205;BMP180;58935;54.498;18.544;2023-04-06T06:01:22;101385.20;;;1.90
71205;BMP180;58935;54.498;18.544;2023-04-06T06:03:47;101384.60;;;1.90
71205;BMP180;58935;54.498;18.544;2023-04-06T06:06:13;101385.80;;;1.98
71205;BMP180;58935;54.498;18.544;2023-04-06T06:08:38;101380.60;;;2.00
71205;BMP180;58935;54.498;18.544;2023-04-06T06:11:03;101384.00;;;2.00
71205;BMP180;58935;54.498;18.544;2023-04-06T06:13:29;101385.00;;;2.00
71205;BMP180;58935;54.498;18.544;2023-04-06T06:15:54;101390.40;;;2.08
71205;BMP180;58935;54.498;18.544;2023-04-06T06:18:20;101387.20;;;2.10
71205;BMP180;58935;54.498;18.544;2023-04-06T06:20:45;101391.00;;;2.20
71205;BMP180;58935;54.498;18.544;2023-04-06T06:23:11;101392.40;;;2.30
71205;BMP180;58935;54.498;18.544;2023-04-06T06:25:39;101390.40;;;2.40
71205;BMP180;58935;54.498;18.544;2023-04-06T06:28:04;101390.80;;;2.50
71205;BMP180;58935;54.498;18.544;2023-04-06T06:30:30;101388.20;;;2.60
71205;BMP180;58935;54.498;18.544;2023-04-06T06:32:55;101390.40;;;2.70
71205;BMP180;58935;54.498;18.544;2023-04-06T06:35:23;101389.40;;;2.70
71205;BMP180;58935;54.498;18.544;2023-04-06T06:37:48;101386.00;;;2.80
71205;BMP180;58935;54.498;18.544;2023-04-06T06:40:13;101390.80;;;2.80
71205;BMP180;58935;54.498;18.544;2023-04-06T06:42:41;101388.60;;;2.80
71205;BMP180;58935;54.498;18.544;2023-04-06T06:45:07;101388.80;;;2.80
71205;BMP180;58935;54.498;18.544;2023-04-06T06:47:32;101392.00;;;2.90
71205;BMP180;58935;54.498;18.544;2023-04-06T06:49:58;101386.80;;;2.90
71205;BMP180;58935;54.498;18.544;2023-04-06T06:52:23;101390.40;;;2.90
71205;BMP180;58935;54.498;18.544;2023-04-06T06:54:49;101388.60;;;2.90
71205;BMP180;58935;54.498;18.544;2023-04-06T06:57:15;101388.20;;;2.90
71205;BMP180;58935;54.498;18.544;2023-04-06T06:59:40;101391.00;;;2.90
71205;BMP180;58935;54.498;18.544;2023-04-06T07:02:05;101392.80;;;2.90
71205;BMP180;58935;54.498;18.544;2023-04-06T07:04:31;101394.80;;;2.90
71205;BMP180;58935;54.498;18.544;2023-04-06T07:06:56;101399.80;;;3.00
71205;BMP180;58935;54.498;18.544;2023-04-06T07:09:22;101404.80;;;3.10
71205;BMP180;58935;54.498;18.544;2023-04-06T07:11:47;101402.20;;;3.10
71205;BMP180;58935;54.498;18.544;2023-04-06T07:14:15;101405.00;;;3.12
71205;BMP180;58935;54.498;18.544;2023-04-06T07:16:40;101404.40;;;3.20
71205;BMP180;58935;54.498;18.544;2023-04-06T07:19:06;101400.40;;;3.12
71205;BMP180;58935;54.498;18.544;2023-04-06T07:21:32;101396.40;;;3.10
71205;BMP180;58935;54.498;18.544;2023-04-06T07:23:59;101401.00;;;3.16
71205;BMP180;58935;54.498;18.544;2023-04-06T07:26:25;101404.20;;;3.20
71205;BMP180;58935;54.498;18.544;2023-04-06T07:28:53;101398.80;;;3.30
71205;BMP180;58935;54.498;18.544;2023-04-06T07:31:18;101403.40;;;3.30
71205;BMP180;58935;54.498;18.544;2023-04-06T07:33:49;101400.20;;;3.30
71205;BMP180;58935;54.498;18.544;2023-04-06T07:36:15;101400.60;;;3.30
71205;BMP180;58935;54.498;18.544;2023-04-06T07:38:40;101400.20;;;3.30
71205;BMP180;58935;54.498;18.544;2023-04-06T07:41:06;101399.00;;;3.30
71205;BMP180;58935;54.498;18.544;2023-04-06T07:43:31;101402.00;;;3.30
71205;BMP180;58935;54.498;18.544;2023-04-06T07:45:56;101404.60;;;3.32
71205;BMP180;58935;54.498;18.544;2023-04-06T07:48:23;101403.00;;;3.30
71205;BMP180;58935;54.498;18.544;2023-04-06T07:50:50;101402.40;;;3.30
71205;BMP180;58935;54.498;18.544;2023-04-06T07:53:16;101403.00;;;3.34
71205;BMP180;58935;54.498;18.544;2023-04-06T07:55:41;101407.00;;;3.40
71205;BMP180;58935;54.498;18.544;2023-04-06T07:58:09;101408.60;;;3.48
71205;BMP180;58935;54.498;18.544;2023-04-06T08:00:34;101406.80;;;3.50
71205;BMP180;58935;54.498;18.544;2023-04-06T08:03:00;101403.20;;;3.50
71205;BMP180;58935;54.498;18.544;2023-04-06T08:05:25;101407.80;;;3.48
71205;BMP180;58935;54.498;18.544;2023-04-06T08:07:51;101408.80;;;3.40
71205;BMP180;58935;54.498;18.544;2023-04-06T08:10:16;101407.00;;;3.44
71205;BMP180;58935;54.498;18.544;2023-04-06T08:12:42;101406.60;;;3.50
71205;BMP180;58935;54.498;18.544;2023-04-06T08:15:07;101409.60;;;3.60
71205;BMP180;58935;54.498;18.544;2023-04-06T08:17:33;101408.60;;;3.60
71205;BMP180;58935;54.498;18.544;2023-04-06T08:20:01;101407.80;;;3.60
71205;BMP180;58935;54.498;18.544;2023-04-06T08:22:28;101402.40;;;3.60
71205;BMP180;58935;54.498;18.544;2023-04-06T08:24:54;101402.40;;;3.70
71205;BMP180;58935;54.498;18.544;2023-04-06T08:27:19;101400.00;;;3.70
71205;BMP180;58935;54.498;18.544;2023-04-06T08:29:49;101399.20;;;3.70
71205;BMP180;58935;54.498;18.544;2023-04-06T08:32:14;101404.40;;;3.80
71205;BMP180;58935;54.498;18.544;2023-04-06T08:34:39;101406.80;;;3.90
71205;BMP180;58935;54.498;18.544;2023-04-06T08:37:06;101411.20;;;3.90
71205;BMP180;58935;54.498;18.544;2023-04-06T08:39:31;101411.00;;;3.92
71205;BMP180;58935;54.498;18.544;2023-04-06T08:41:59;101413.80;;;3.90
71205;BMP180;58935;54.498;18.544;2023-04-06T08:44:28;101411.00;;;4.00
71205;BMP180;58935;54.498;18.544;2023-04-06T08:46:54;101410.80;;;4.00
71205;BMP180;58935;54.498;18.544;2023-04-06T08:49:20;101418.40;;;4.10
71205;BMP180;58935;54.498;18.544;2023-04-06T08:51:48;101417.00;;;4.10
71205;BMP180;58935;54.498;18.544;2023-04-06T08:54:14;101411.20;;;4.20
71205;BMP180;58935;54.498;18.544;2023-04-06T08:56:40;101415.60;;;4.28
71205;BMP180;58935;54.498;18.544;2023-04-06T08:59:06;101412.40;;;4.20
71205;BMP180;58935;54.498;18.544;2023-04-06T09:01:33;101410.40;;;4.20
71205;BMP180;58935;54.498;18.544;2023-04-06T09:04:03;101419.40;;;4.22
71205;BMP180;58935;54.498;18.544;2023-04-06T09:06:32;101414.20;;;4.26
71205;BMP180;58935;54.498;18.544;2023-04-06T09:08:57;101415.00;;;4.20
71205;BMP180;58935;54.498;18.544;2023-04-06T09:11:23;101415.20;;;4.10
71205;BMP180;58935;54.498;18.544;2023-04-06T09:13:52;101409.00;;;4.00
71205;BMP180;58935;54.498;18.544;2023-04-06T09:16:18;101407.20;;;3.92
71205;BMP180;58935;54.498;18.544;2023-04-06T09:18:47;101403.20;;;3.90
71205;BMP180;58935;54.498;18.544;2023-04-06T09:21:16;101403.60;;;3.90
71205;BMP180;58935;54.498;18.544;2023-04-06T09:23:42;101406.00;;;3.90
71205;BMP180;58935;54.498;18.544;2023-04-06T09:26:17;101406.40;;;3.90
71205;BMP180;58935;54.498;18.544;2023-04-06T09:31:29;101403.80;;;3.80
71205;BMP180;58935;54.498;18.544;2023-04-06T09:33:55;101399.80;;;3.80
71205;BMP180;58935;54.498;18.544;2023-04-06T09:38:58;101403.80;;;3.80
71205;BMP180;58935;54.498;18.544;2023-04-06T09:41:25;101401.20;;;3.70
71205;BMP180;58935;54.498;18.544;2023-04-06T09:43:52;101403.00;;;3.70
71205;BMP180;58935;54.498;18.544;2023-04-06T09:46:20;101401.20;;;3.70
71205;BMP180;58935;54.498;18.544;2023-04-06T09:48:46;101405.60;;;3.74
71205;BMP180;58935;54.498;18.544;2023-04-06T09:51:14;101405.80;;;3.90
71205;BMP180;58935;54.498;18.544;2023-04-06T09:53:42;101407.60;;;3.90
71205;BMP180;58935;54.498;18.544;2023-04-06T09:56:11;101409.00;;;4.00
71205;BMP180;58935;54.498;18.544;2023-04-06T09:58:40;101412.80;;;4.00
71205;BMP180;58935;54.498;18.544;2023-04-06T10:01:15;101404.80;;;3.90
71205;BMP180;58935;54.498;18.544;2023-04-06T10:03:54;101405.80;;;3.90
71205;BMP180;58935;54.498;18.544;2023-04-06T10:06:23;101405.60;;;3.90
71205;BMP180;58935;54.498;18.544;2023-04-06T10:08:52;101408.80;;;4.00
71205;BMP180;58935;54.498;18.544;2023-04-06T10:11:19;101404.80;;;4.10
71205;BMP180;58935;54.498;18.544;2023-04-06T10:13:47;101407.40;;;4.20
71205;BMP180;58935;54.498;18.544;2023-04-06T10:16:14;101406.60;;;4.30
71205;BMP180;58935;54.498;18.544;2023-04-06T10:18:46;101403.00;;;4.30
71205;BMP180;58935;54.498;18.544;2023-04-06T10:21:15;101399.80;;;4.30
71205;BMP180;58935;54.498;18.544;2023-04-06T10:23:48;101406.60;;;4.30
71205;BMP180;58935;54.498;18.544;2023-04-06T10:26:16;101408.20;;;4.30
71205;BMP180;58935;54.498;18.544;2023-04-06T10:28:46;101405.00;;;4.28
71205;BMP180;58935;54.498;18.544;2023-04-06T10:31:12;101410.40;;;4.30
71205;BMP180;58935;54.498;18.544;2023-04-06T10:33:38;101405.20;;;4.30
71205;BMP180;58935;54.498;18.544;2023-04-06T10:36:09;101405.80;;;4.30
71205;BMP180;58935;54.498;18.544;2023-04-06T10:38:38;101401.00;;;4.30
71205;BMP180;58935;54.498;18.544;2023-04-06T10:41:05;101403.80;;;4.40
71205;BMP180;58935;54.498;18.544;2023-04-06T10:43:35;101408.80;;;4.40
71205;BMP180;58935;54.498;18.544;2023-04-06T10:46:01;101405.00;;;4.40
71205;BMP180;58935;54.498;18.544;2023-04-06T10:50:58;101408.00;;;4.40
71205;BMP180;58935;54.498;18.544;2023-04-06T10:53:25;101408.00;;;4.40
71205;BMP180;58935;54.498;18.544;2023-04-06T10:55:55;101406.20;;;4.40
71205;BMP180;58935;54.498;18.544;2023-04-06T10:58:25;101397.20;;;4.40
71205;BMP180;58935;54.498;18.544;2023-04-06T11:00:51;101400.60;;;4.34
71205;BMP180;58935;54.498;18.544;2023-04-06T11:03:17;101397.20;;;4.30
71205;BMP180;58935;54.498;18.544;2023-04-06T11:05:45;101395.60;;;4.30
71205;BMP180;58935;54.498;18.544;2023-04-06T11:08:24;101395.60;;;4.30
71205;BMP180;58935;54.498;18.544;2023-04-06T11:10:50;101388.00;;;4.20
71205;BMP180;58935;54.498;18.544;2023-04-06T11:13:16;101390.40;;;4.20
71205;BMP180;58935;54.498;18.544;2023-04-06T11:15:44;101391.20;;;4.20
71205;BMP180;58935;54.498;18.544;2023-04-06T11:18:10;101388.60;;;4.20
71205;BMP180;58935;54.498;18.544;2023-04-06T11:20:36;101394.80;;;4.30
71205;BMP180;58935;54.498;18.544;2023-04-06T11:23:01;101390.40;;;4.30
71205;BMP180;58935;54.498;18.544;2023-04-06T11:25:28;101384.80;;;4.20
71205;BMP180;58935;54.498;18.544;2023-04-06T11:27:57;101388.00;;;4.20
71205;BMP180;58935;54.498;18.544;2023-04-06T11:30:22;101377.40;;;4.24
71205;BMP180;58935;54.498;18.544;2023-04-06T11:32:48;101371.60;;;4.30
71205;BMP180;58935;54.498;18.544;2023-04-06T11:35:19;101371.40;;;4.30
71205;BMP180;58935;54.498;18.544;2023-04-06T11:37:45;101366.20;;;4.30
71205;BMP180;58935;54.498;18.544;2023-04-06T11:40:11;101364.20;;;4.40
71205;BMP180;58935;54.498;18.544;2023-04-06T11:42:36;101362.80;;;4.42
71205;BMP180;58935;54.498;18.544;2023-04-06T11:45:02;101374.40;;;4.50
71205;BMP180;58935;54.498;18.544;2023-04-06T11:47:31;101361.20;;;4.50
71205;BMP180;58935;54.498;18.544;2023-04-06T11:50:07;101361.80;;;4.50
71205;BMP180;58935;54.498;18.544;2023-04-06T11:52:33;101365.40;;;4.40
71205;BMP180;58935;54.498;18.544;2023-04-06T11:55:10;101366.20;;;4.40
71205;BMP180;58935;54.498;18.544;2023-04-06T11:57:36;101364.00;;;4.50
71205;BMP180;58935;54.498;18.544;2023-04-06T12:00:02;101359.00;;;4.50
71205;BMP180;58935;54.498;18.544;2023-04-06T12:02:27;101349.40;;;4.50
71205;BMP180;58935;54.498;18.544;2023-04-06T12:04:53;101350.40;;;4.46
71205;BMP180;58935;54.498;18.544;2023-04-06T12:07:18;101357.60;;;4.40
71205;BMP180;58935;54.498;18.544;2023-04-06T12:09:43;101348.20;;;4.40
71205;BMP180;58935;54.498;18.544;2023-04-06T12:12:09;101353.80;;;4.40
71205;BMP180;58935;54.498;18.544;2023-04-06T12:14:35;101351.00;;;4.40
71205;BMP180;58935;54.498;18.544;2023-04-06T12:17:00;101344.60;;;4.40
71205;BMP180;58935;54.498;18.544;2023-04-06T12:19:26;101347.40;;;4.40
71205;BMP180;58935;54.498;18.544;2023-04-06T12:21:53;101342.20;;;4.44
71205;BMP180;58935;54.498;18.544;2023-04-06T12:24:19;101342.00;;;4.48
71205;BMP180;58935;54.498;18.544;2023-04-06T12:26:45;101345.60;;;4.40
71205;BMP180;58935;54.498;18.544;2023-04-06T12:29:11;101349.20;;;4.40
71205;BMP180;58935;54.498;18.544;2023-04-06T12:31:38;101336.40;;;4.30
71205;BMP180;58935;54.498;18.544;2023-04-06T12:34:06;101336.20;;;4.30
71205;BMP180;58935;54.498;18.544;2023-04-06T12:36:32;101339.60;;;4.32
71205;BMP180;58935;54.498;18.544;2023-04-06T12:38:57;101336.80;;;4.32
71205;BMP180;58935;54.498;18.544;2023-04-06T12:41:23;101331.40;;;4.40
71205;BMP180;58935;54.498;18.544;2023-04-06T12:43:50;101329.00;;;4.50
71205;BMP180;58935;54.498;18.544;2023-04-06T12:46:16;101323.40;;;4.56
71205;BMP180;58935;54.498;18.544;2023-04-06T12:48:41;101316.60;;;4.50
71205;BMP180;58935;54.498;18.544;2023-04-06T12:51:07;101315.20;;;4.52
71205;BMP180;58935;54.498;18.544;2023-04-06T12:53:34;101313.20;;;4.70
71205;BMP180;58935;54.498;18.544;2023-04-06T12:56:00;101313.60;;;4.82
71205;BMP180;58935;54.498;18.544;2023-04-06T12:58:26;101316.60;;;4.80
71205;BMP180;58935;54.498;18.544;2023-04-06T13:00:53;101320.20;;;4.70
71205;BMP180;58935;54.498;18.544;2023-04-06T13:03:20;101305.60;;;4.70
71205;BMP180;58935;54.498;18.544;2023-04-06T13:05:46;101314.20;;;4.70
71205;BMP180;58935;54.498;18.544;2023-04-06T13:08:13;101307.20;;;4.60
71205;BMP180;58935;54.498;18.544;2023-04-06T13:10:46;101303.80;;;4.68
71205;BMP180;58935;54.498;18.544;2023-04-06T13:13:12;101296.00;;;4.60
71205;BMP180;58935;54.498;18.544;2023-04-06T13:15:37;101304.60;;;4.70
71205;BMP180;58935;54.498;18.544;2023-04-06T13:18:03;101300.20;;;4.70
71205;BMP180;58935;54.498;18.544;2023-04-06T13:20:29;101303.00;;;4.62
71205;BMP180;58935;54.498;18.544;2023-04-06T13:22:55;101298.60;;;4.60
71205;BMP180;58935;54.498;18.544;2023-04-06T13:25:20;101301.40;;;4.62
71205;BMP180;58935;54.498;18.544;2023-04-06T13:27:46;101296.20;;;4.60
71205;BMP180;58935;54.498;18.544;2023-04-06T13:30:13;101295.40;;;4.60
71205;BMP180;58935;54.498;18.544;2023-04-06T13:32:39;101295.20;;;4.50
71205;BMP180;58935;54.498;18.544;2023-04-06T13:35:07;101292.40;;;4.40
71205;BMP180;58935;54.498;18.544;2023-04-06T13:37:33;101295.60;;;4.50
71205;BMP180;58935;54.498;18.544;2023-04-06T13:39:58;101302.40;;;4.50
71205;BMP180;58935;54.498;18.544;2023-04-06T13:42:24;101300.60;;;4.40
71205;BMP180;58935;54.498;18.544;2023-04-06T13:44:49;101302.00;;;4.40
71205;BMP180;58935;54.498;18.544;2023-04-06T13:47:16;101299.00;;;4.30
71205;BMP180;58935;54.498;18.544;2023-04-06T13:49:42;101292.80;;;4.20
71205;BMP180;58935;54.498;18.544;2023-04-06T13:52:08;101290.00;;;4.22
71205;BMP180;58935;54.498;18.544;2023-04-06T13:54:35;101291.20;;;4.20
71205;BMP180;58935;54.498;18.544;2023-04-06T13:57:00;101288.80;;;4.10